Time;durP1;ratioP1;P1;durP2;ratioP2;P2;SDS_P1;SDS_P2;PMS_P1;PMS_P2;Temp;Humidity;BMP_temperature;BMP_pressure;BME280_temperature;BME280_humidity;BME280_pressure;Samples;Min_cycle;Max_cycle;Signal;HPM_P1;HPM_P2
2022/03/15 00:01:06;;;;;;;13.65;11.38;;;;;;;;;;4996008;28;20073;-86
2022/03/15 00:03:33;;;;;;;14.45;11.48;;;;;;;;;;4994183;28;20042;-86
2022/03/15 00:06:02;;;;;;;16.38;12.52;;;;;;;;;;4999971;28;20038;-86
2022/03/15 00:08:30;;;;;;;15.50;13.02;;;;;;;;;;5013047;28;20403;-86
2022/03/15 00:11:02;;;;;;;14.35;11.82;;;;;;;;;;5004174;28;20065;-86
2022/03/15 00:13:30;;;;;;;15.10;12.73;;;;;;;;;;5007326;28;20042;-86
2022/03/15 00:16:00;;;;;;;15.32;12.48;;;;;;;;;;4991950;28;20042;-86
2022/03/15 00:18:31;;;;;;;16.20;11.23;;;;;;;;;;4991309;28;20153;-86
2022/03/15 00:20:58;;;;;;;16.75;12.77;;;;;;;;;;4990892;28;20133;-86
2022/03/15 00:23:26;;;;;;;17.33;12.90;;;;;;;;;;4992926;28;20038;-86
2022/03/15 00:25:53;;;;;;;14.82;11.77;;;;;;;;;;4995174;28;20165;-86
2022/03/15 00:28:24;;;;;;;14.18;11.65;;;;;;;;;;4993696;28;20046;-86
2022/03/15 00:30:52;;;;;;;13.80;11.38;;;;;;;;;;5008851;28;20077;-85
2022/03/15 00:33:20;;;;;;;15.20;11.65;;;;;;;;;;4991284;28;20068;-86
2022/03/15 00:35:51;;;;;;;14.30;11.25;;;;;;;;;;4974316;28;20630;-86
2022/03/15 00:38:18;;;;;;;15.82;12.68;;;;;;;;;;5009200;28;20487;-85
2022/03/15 00:40:46;;;;;;;13.27;10.57;;;;;;;;;;4999432;28;20056;-86
2022/03/15 00:43:15;;;;;;;16.23;11.82;;;;;;;;;;5010529;28;20073;-87
2022/03/15 00:45:43;;;;;;;14.13;12.40;;;;;;;;;;4991527;28;20046;-86
2022/03/15 00:48:11;;;;;;;11.43;9.73;;;;;;;;;;4988970;28;20043;-87
2022/03/15 00:50:40;;;;;;;12.93;10.85;;;;;;;;;;4990100;28;20046;-86
2022/03/15 00:53:14;;;;;;;13.73;11.85;;;;;;;;;;5006188;28;20483;-86
2022/03/15 00:55:43;;;;;;;14.18;11.70;;;;;;;;;;4996315;28;20553;-86
2022/03/15 00:58:11;;;;;;;13.10;11.10;;;;;;;;;;5011557;28;20038;-86
2022/03/15 01:00:38;;;;;;;12.95;11.55;;;;;;;;;;4995210;28;20041;-86
2022/03/15 01:03:07;;;;;;;13.25;10.70;;;;;;;;;;5027615;28;20034;-85
2022/03/15 01:05:35;;;;;;;13.82;11.38;;;;;;;;;;5009912;28;20122;-86
2022/03/15 01:08:03;;;;;;;12.90;11.20;;;;;;;;;;4995349;28;20043;-85
2022/03/15 01:10:30;;;;;;;17.40;11.77;;;;;;;;;;4994146;28;20073;-86
2022/03/15 01:13:00;;;;;;;15.65;12.02;;;;;;;;;;5009183;28;20050;-86
2022/03/15 01:15:39;;;;;;;13.68;11.13;;;;;;;;;;4993107;28;20159;-86
2022/03/15 01:18:07;;;;;;;15.05;11.57;;;;;;;;;;4991844;28;20138;-86
2022/03/15 01:20:34;;;;;;;16.98;11.73;;;;;;;;;;4995902;28;20487;-86
2022/03/15 01:23:01;;;;;;;14.88;12.77;;;;;;;;;;5014393;28;20077;-86
2022/03/15 01:25:30;;;;;;;13.98;11.95;;;;;;;;;;5028015;28;20046;-85
2022/03/15 01:27:57;;;;;;;13.57;11.43;;;;;;;;;;4997711;28;20114;-86
2022/03/15 01:30:25;;;;;;;17.65;12.80;;;;;;;;;;4997304;28;20073;-86
2022/03/15 01:32:52;;;;;;;14.30;11.43;;;;;;;;;;4997608;28;20053;-86
2022/03/15 01:35:19;;;;;;;13.73;11.38;;;;;;;;;;4983158;28;20644;-86
2022/03/15 01:37:47;;;;;;;16.67;11.88;;;;;;;;;;5018303;28;20518;-86
2022/03/15 01:40:14;;;;;;;14.38;11.93;;;;;;;;;;5033710;28;20061;-86
2022/03/15 01:42:44;;;;;;;15.40;12.50;;;;;;;;;;4998032;28;20129;-86
2022/03/15 01:45:11;;;;;;;14.45;12.05;;;;;;;;;;4998371;28;20077;-86
2022/03/15 01:47:39;;;;;;;16.02;11.95;;;;;;;;;;5002002;28;20053;-85
2022/03/15 01:50:07;;;;;;;15.77;12.25;;;;;;;;;;5032151;28;20125;-86
2022/03/15 01:52:34;;;;;;;16.25;14.05;;;;;;;;;;4994039;28;20508;-86
2022/03/15 01:55:01;;;;;;;16.30;12.75;;;;;;;;;;4976322;28;20042;-86
2022/03/15 01:57:29;;;;;;;15.98;12.73;;;;;;;;;;4995486;28;20051;-86
2022/03/15 01:59:56;;;;;;;14.65;12.35;;;;;;;;;;4995428;28;20052;-86
2022/03/15 02:02:24;;;;;;;15.73;11.90;;;;;;;;;;4975409;28;20141;-86
2022/03/15 02:04:51;;;;;;;15.52;12.25;;;;;;;;;;4995211;28;20042;-86
2022/03/15 02:07:18;;;;;;;15.10;11.90;;;;;;;;;;5011938;28;20050;-86
2022/03/15 02:09:47;;;;;;;13.70;11.00;;;;;;;;;;4996094;28;20411;-86
2022/03/15 02:12:14;;;;;;;16.27;11.65;;;;;;;;;;4992357;28;20105;-86
2022/03/15 02:14:41;;;;;;;13.63;11.73;;;;;;;;;;4988949;28;20043;-86
2022/03/15 02:17:08;;;;;;;14.60;11.45;;;;;;;;;;5023214;22;20054;-71
2022/03/15 02:19:37;;;;;;;15.13;12.20;;;;;;;;;;5005552;28;20046;-69
2022/03/15 02:22:04;;;;;;;14.63;11.30;;;;;;;;;;4990574;28;20133;-69
2022/03/15 02:24:34;;;;;;;15.05;11.75;;;;;;;;;;4991375;28;20117;-70
2022/03/15 02:27:02;;;;;;;16.42;13.02;;;;;;;;;;4992982;28;20044;-69
2022/03/15 02:29:29;;;;;;;16.42;13.82;;;;;;;;;;5009575;28;20045;-70
2022/03/15 02:31:58;;;;;;;13.20;11.80;;;;;;;;;;5010529;28;20049;-68
2022/03/15 02:34:26;;;;;;;14.35;11.98;;;;;;;;;;5008983;28;20057;-71
2022/03/15 02:36:54;;;;;;;15.82;13.00;;;;;;;;;;5010296;28;20517;-71
2022/03/15 02:39:21;;;;;;;17.40;12.02;;;;;;;;;;5010535;28;20045;-71
2022/03/15 02:41:49;;;;;;;15.07;11.63;;;;;;;;;;5010306;28;20056;-72
2022/03/15 02:44:18;;;;;;;15.15;11.55;;;;;;;;;;5009900;28;20132;-70
2022/03/15 02:46:49;;;;;;;15.52;11.85;;;;;;;;;;5024478;28;20132;-69
2022/03/15 02:49:17;;;;;;;14.68;12.40;;;;;;;;;;5025828;28;20045;-70
2022/03/15 02:51:44;;;;;;;14.63;12.32;;;;;;;;;;5010344;28;20092;-70
2022/03/15 02:54:13;;;;;;;14.70;11.55;;;;;;;;;;5025553;28;20034;-69
2022/03/15 02:56:44;;;;;;;17.55;12.55;;;;;;;;;;5009015;28;20070;-70
2022/03/15 02:59:16;;;;;;;12.47;11.20;;;;;;;;;;5010012;28;20148;-68
2022/03/15 03:01:43;;;;;;;14.07;11.60;;;;;;;;;;5008882;28;20304;-70
2022/03/15 03:04:11;;;;;;;14.45;11.35;;;;;;;;;;5009272;28;20042;-70
2022/03/15 03:06:41;;;;;;;18.13;15.07;;;;;;;;;;5009401;28;20045;-70
2022/03/15 03:09:09;;;;;;;15.80;12.30;;;;;;;;;;5025174;28;20048;-69
2022/03/15 03:11:36;;;;;;;13.65;11.55;;;;;;;;;;5025176;28;20052;-68
2022/03/15 03:14:04;;;;;;;15.90;12.60;;;;;;;;;;5007860;28;20144;-68
2022/03/15 03:16:34;;;;;;;16.38;12.05;;;;;;;;;;5024538;28;20052;-69
2022/03/15 03:19:07;;;;;;;13.63;12.18;;;;;;;;;;5009714;28;20053;-70
2022/03/15 03:21:40;;;;;;;15.82;11.93;;;;;;;;;;5009951;28;20121;-70
2022/03/15 03:24:08;;;;;;;16.73;14.40;;;;;;;;;;5009713;28;20421;-70
2022/03/15 03:26:37;;;;;;;15.98;12.45;;;;;;;;;;5009424;28;20057;-70
2022/03/15 03:29:13;;;;;;;15.55;12.70;;;;;;;;;;5010074;28;20052;-70
2022/03/15 03:31:42;;;;;;;13.70;12.27;;;;;;;;;;5024903;28;20057;-70
2022/03/15 03:34:11;;;;;;;17.33;13.15;;;;;;;;;;5009267;28;20045;-67
2022/03/15 03:36:39;;;;;;;16.75;13.20;;;;;;;;;;5024346;28;20095;-70
2022/03/15 03:39:26;;;;;;;16.73;13.10;;;;;;;;;;5009203;28;20050;-69
2022/03/15 03:41:54;;;;;;;14.52;12.23;;;;;;;;;;5007743;28;20050;-68
2022/03/15 03:44:22;;;;;;;15.68;12.25;;;;;;;;;;5008895;28;20093;-70
2022/03/15 03:46:49;;;;;;;16.55;12.88;;;;;;;;;;5008993;28;20042;-70
2022/03/15 03:49:17;;;;;;;17.05;13.82;;;;;;;;;;5023888;28;20042;-70
2022/03/15 03:51:44;;;;;;;16.02;12.65;;;;;;;;;;5033428;23;20785;-71
2022/03/15 03:54:12;;;;;;;14.85;11.65;;;;;;;;;;4989840;28;20053;-71
2022/03/15 03:56:39;;;;;;;14.45;11.57;;;;;;;;;;5007577;28;20046;-72
2022/03/15 03:59:08;;;;;;;17.42;12.70;;;;;;;;;;5014253;28;20425;-71
2022/03/15 04:01:35;;;;;;;15.70;13.40;;;;;;;;;;5006981;28;20130;-71
2022/03/15 04:04:05;;;;;;;15.88;13.20;;;;;;;;;;5010547;28;20042;-72
2022/03/15 04:06:33;;;;;;;16.50;13.85;;;;;;;;;;5027082;28;20033;-71
2022/03/15 04:09:01;;;;;;;16.67;12.68;;;;;;;;;;5020594;28;20045;-71
2022/03/15 04:11:31;;;;;;;17.38;12.95;;;;;;;;;;5025772;28;20046;-71
2022/03/15 04:14:03;;;;;;;16.60;12.48;;;;;;;;;;5017427;28;20553;-71
2022/03/15 04:16:31;;;;;;;17.35;13.23;;;;;;;;;;5019429;28;20053;-71
2022/03/15 04:18:58;;;;;;;15.55;12.32;;;;;;;;;;5009579;28;20050;-71
2022/03/15 04:21:26;;;;;;;17.80;12.70;;;;;;;;;;5008486;28;20041;-71
2022/03/15 04:23:54;;;;;;;17.65;14.40;;;;;;;;;;5008804;28;20088;-71
2022/03/15 04:26:22;;;;;;;18.27;15.35;;;;;;;;;;5007210;28;20042;-71
2022/03/15 04:28:49;;;;;;;16.27;13.52;;;;;;;;;;5008442;28;20038;-71
2022/03/15 04:31:17;;;;;;;18.35;16.15;;;;;;;;;;5007040;28;20049;-71
2022/03/15 04:33:44;;;;;;;21.35;16.98;;;;;;;;;;5008022;28;20034;-71
2022/03/15 04:36:12;;;;;;;20.95;16.50;;;;;;;;;;5007549;28;20205;-71
2022/03/15 04:38:39;;;;;;;17.70;13.85;;;;;;;;;;5006696;28;20042;-71
2022/03/15 04:41:07;;;;;;;18.65;14.95;;;;;;;;;;5006617;28;20038;-71
2022/03/15 04:43:34;;;;;;;18.35;14.73;;;;;;;;;;5007026;28;20042;-71
2022/03/15 04:46:02;;;;;;;17.52;13.90;;;;;;;;;;5008947;28;20549;-70
2022/03/15 04:48:33;;;;;;;21.42;14.38;;;;;;;;;;5014877;28;20052;-70
2022/03/15 04:51:05;;;;;;;19.00;14.35;;;;;;;;;;5007122;28;20046;-70
2022/03/15 04:53:33;;;;;;;15.82;13.60;;;;;;;;;;5007992;28;20046;-70
2022/03/15 04:56:00;;;;;;;17.30;14.30;;;;;;;;;;5006057;28;20581;-70
2022/03/15 04:58:28;;;;;;;17.80;14.43;;;;;;;;;;5008033;28;20069;-70
2022/03/15 05:00:55;;;;;;;17.98;14.77;;;;;;;;;;5012555;28;20065;-70
2022/03/15 05:03:23;;;;;;;18.08;15.07;;;;;;;;;;5010507;28;20069;-70
2022/03/15 05:05:50;;;;;;;14.77;12.45;;;;;;;;;;5011677;28;20148;-70
2022/03/15 05:08:18;;;;;;;18.35;14.30;;;;;;;;;;5006970;28;20068;-71
2022/03/15 05:13:32;;;;;;;19.10;12.90;;;;;;;;;;5011727;28;20068;-72
2022/03/15 05:15:59;;;;;;;18.33;13.63;;;;;;;;;;5010888;28;20401;-70
2022/03/15 05:18:27;;;;;;;15.40;12.77;;;;;;;;;;5010658;28;20088;-69
2022/03/15 05:20:55;;;;;;;17.58;14.52;;;;;;;;;;5004928;28;20073;-72
2022/03/15 05:23:22;;;;;;;18.70;14.25;;;;;;;;;;5002495;28;20122;-70
2022/03/15 05:25:49;;;;;;;17.42;13.75;;;;;;;;;;5004891;28;20035;-70
2022/03/15 05:28:17;;;;;;;17.15;14.10;;;;;;;;;;4993918;28;20034;-70
2022/03/15 05:30:44;;;;;;;19.30;15.55;;;;;;;;;;5005035;28;20030;-71
2022/03/15 05:33:12;;;;;;;19.40;15.55;;;;;;;;;;5007066;28;20148;-71
2022/03/15 05:35:41;;;;;;;15.63;13.38;;;;;;;;;;5010241;28;20045;-71
2022/03/15 05:38:09;;;;;;;20.40;16.08;;;;;;;;;;5011303;28;20081;-71
2022/03/15 05:40:36;;;;;;;13.73;12.25;;;;;;;;;;5010956;28;20046;-71
2022/03/15 05:43:04;;;;;;;16.75;13.23;;;;;;;;;;5010888;28;20460;-71
2022/03/15 05:45:31;;;;;;;19.85;14.93;;;;;;;;;;5009383;28;20108;-70
2022/03/15 05:47:59;;;;;;;28.40;17.15;;;;;;;;;;5011264;28;20116;-71
2022/03/15 05:50:26;;;;;;;22.20;15.18;;;;;;;;;;5011007;28;20041;-70
2022/03/15 05:52:53;;;;;;;21.92;17.42;;;;;;;;;;5010375;28;20521;-72
2022/03/15 05:55:21;;;;;;;18.42;15.43;;;;;;;;;;5005926;28;20135;-70
2022/03/15 05:57:48;;;;;;;21.98;17.77;;;;;;;;;;5009527;28;20050;-71
2022/03/15 06:00:17;;;;;;;22.33;18.13;;;;;;;;;;5006396;28;20405;-71
2022/03/15 06:02:44;;;;;;;19.52;16.90;;;;;;;;;;4995631;28;20576;-70
2022/03/15 06:05:12;;;;;;;25.40;17.80;;;;;;;;;;4997912;28;20497;-71
2022/03/15 06:07:50;;;;;;;21.83;17.67;;;;;;;;;;5002966;28;20410;-69
2022/03/15 06:10:21;;;;;;;22.63;15.73;;;;;;;;;;5006424;28;20569;-69
2022/03/15 06:12:49;;;;;;;22.83;17.60;;;;;;;;;;4994194;28;20046;-70
2022/03/15 06:15:17;;;;;;;17.63;15.00;;;;;;;;;;5004603;28;20048;-70
2022/03/15 06:17:49;;;;;;;20.42;16.27;;;;;;;;;;5000810;28;20042;-70
2022/03/15 06:20:18;;;;;;;19.15;16.08;;;;;;;;;;5006637;28;20042;-71
2022/03/15 06:22:46;;;;;;;24.10;16.88;;;;;;;;;;5003391;28;20046;-70
2022/03/15 06:25:14;;;;;;;18.95;16.23;;;;;;;;;;5005818;28;20125;-70
2022/03/15 06:27:47;;;;;;;20.63;16.42;;;;;;;;;;5005807;28;20076;-70
2022/03/15 06:30:18;;;;;;;20.88;15.57;;;;;;;;;;5009210;28;20040;-70
2022/03/15 06:32:46;;;;;;;20.70;16.88;;;;;;;;;;5009876;28;20050;-73
2022/03/15 06:35:13;;;;;;;19.83;15.88;;;;;;;;;;5006758;28;20077;-72
2022/03/15 06:37:45;;;;;;;20.35;16.13;;;;;;;;;;5008646;28;20034;-71
2022/03/15 06:40:13;;;;;;;;;;;;;;;;;;5007982;28;20056;-71
2022/03/15 06:42:40;;;;;;;20.35;15.68;;;;;;;;;;5009173;28;19926;-71
2022/03/15 06:45:09;;;;;;;20.08;16.73;;;;;;;;;;5007616;28;20141;-72
2022/03/15 06:47:37;;;;;;;22.73;18.05;;;;;;;;;;5006297;28;20034;-71
2022/03/15 06:50:07;;;;;;;23.10;16.95;;;;;;;;;;5008835;28;20101;-71
2022/03/15 06:52:34;;;;;;;19.25;15.52;;;;;;;;;;5009418;28;20133;-71
2022/03/15 06:55:02;;;;;;;25.80;18.00;;;;;;;;;;5007377;28;20046;-71
2022/03/15 06:57:30;;;;;;;23.35;17.13;;;;;;;;;;5008995;28;20048;-72
2022/03/15 06:59:59;;;;;;;23.98;16.70;;;;;;;;;;5009564;28;20041;-72
2022/03/15 07:02:27;;;;;;;21.20;16.17;;;;;;;;;;5007861;28;20268;-72
2022/03/15 07:04:55;;;;;;;24.73;17.58;;;;;;;;;;5009217;28;20038;-71
2022/03/15 07:07:23;;;;;;;23.52;18.58;;;;;;;;;;5008308;28;20116;-71
2022/03/15 07:09:50;;;;;;;18.88;15.10;;;;;;;;;;5008402;28;20042;-72
2022/03/15 07:12:19;;;;;;;24.10;16.58;;;;;;;;;;5009070;28;20046;-72
2022/03/15 07:14:47;;;;;;;22.50;17.33;;;;;;;;;;5009157;28;20041;-71
2022/03/15 07:17:14;;;;;;;19.35;16.02;;;;;;;;;;5006305;28;20046;-73
2022/03/15 07:19:44;;;;;;;22.98;16.48;;;;;;;;;;4992437;28;20084;-72
2022/03/15 07:22:11;;;;;;;21.73;16.90;;;;;;;;;;5008939;28;20406;-72
2022/03/15 07:24:39;;;;;;;21.33;15.93;;;;;;;;;;5006338;28;20561;-70
2022/03/15 07:27:07;;;;;;;19.25;15.48;;;;;;;;;;5008910;28;20425;-72
2022/03/15 07:29:34;;;;;;;19.35;17.23;;;;;;;;;;5008723;28;20030;-71
2022/03/15 07:32:02;;;;;;;17.85;15.32;;;;;;;;;;5008735;28;20525;-71
2022/03/15 07:34:30;;;;;;;21.13;14.40;;;;;;;;;;5008258;28;20042;-72
2022/03/15 07:36:58;;;;;;;20.25;15.45;;;;;;;;;;5007428;28;20038;-70
2022/03/15 07:39:25;;;;;;;21.77;16.55;;;;;;;;;;5009110;28;20636;-69
2022/03/15 07:41:53;;;;;;;19.67;16.40;;;;;;;;;;5008513;28;20049;-70
2022/03/15 07:44:21;;;;;;;19.95;17.67;;;;;;;;;;5008523;28;20515;-71
2022/03/15 07:46:49;;;;;;;18.30;16.20;;;;;;;;;;5006753;28;20046;-71
2022/03/15 07:49:20;;;;;;;19.95;15.57;;;;;;;;;;5006848;28;20033;-71
2022/03/15 07:51:48;;;;;;;23.75;18.90;;;;;;;;;;5007787;28;20045;-71
2022/03/15 07:54:15;;;;;;;24.30;18.17;;;;;;;;;;4992180;28;20049;-71
2022/03/15 07:56:44;;;;;;;22.15;16.85;;;;;;;;;;4993701;28;20502;-71
2022/03/15 07:59:11;;;;;;;18.92;16.45;;;;;;;;;;5007078;28;20472;-71
2022/03/15 08:01:38;;;;;;;21.80;17.58;;;;;;;;;;4998689;28;20093;-71
2022/03/15 08:04:06;;;;;;;20.17;16.30;;;;;;;;;;5005438;28;20045;-71
2022/03/15 08:06:35;;;;;;;20.40;16.45;;;;;;;;;;4996716;28;20066;-70
2022/03/15 08:09:04;;;;;;;23.42;18.02;;;;;;;;;;5004192;28;20034;-72
2022/03/15 08:11:32;;;;;;;22.77;17.92;;;;;;;;;;5006715;28;20042;-72
2022/03/15 08:13:59;;;;;;;25.75;17.80;;;;;;;;;;5005458;28;20049;-72
2022/03/15 08:16:27;;;;;;;27.52;17.30;;;;;;;;;;5006895;28;20072;-71
2022/03/15 08:18:55;;;;;;;21.88;17.55;;;;;;;;;;5009873;28;20105;-71
2022/03/15 08:21:23;;;;;;;26.35;18.08;;;;;;;;;;5013299;28;20046;-71
2022/03/15 08:23:50;;;;;;;22.77;17.17;;;;;;;;;;5016406;28;20088;-72
2022/03/15 08:26:18;;;;;;;24.95;17.50;;;;;;;;;;5004591;28;20050;-71
2022/03/15 08:28:48;;;;;;;33.05;19.75;;;;;;;;;;5016601;28;20038;-71
2022/03/15 08:31:16;;;;;;;22.83;17.70;;;;;;;;;;5016957;28;20133;-70
2022/03/15 08:33:44;;;;;;;23.42;17.58;;;;;;;;;;5009227;28;20161;-70
2022/03/15 08:36:13;;;;;;;21.30;17.65;;;;;;;;;;5010644;28;20045;-70
2022/03/15 08:38:41;;;;;;;24.48;18.55;;;;;;;;;;5012788;28;20073;-74
2022/03/15 08:41:08;;;;;;;27.23;18.35;;;;;;;;;;5012090;28;20505;-71
2022/03/15 08:43:36;;;;;;;26.70;17.23;;;;;;;;;;5010693;28;20061;-71
2022/03/15 08:46:04;;;;;;;24.08;17.40;;;;;;;;;;5011232;28;20041;-71
2022/03/15 08:48:31;;;;;;;18.73;16.27;;;;;;;;;;5011833;28;20038;-71
2022/03/15 08:51:00;;;;;;;20.73;16.98;;;;;;;;;;5010855;28;20034;-71
2022/03/15 08:53:29;;;;;;;24.15;17.00;;;;;;;;;;5010832;28;20560;-70
2022/03/15 08:55:56;;;;;;;20.10;17.17;;;;;;;;;;5009815;28;20386;-72
2022/03/15 08:58:24;;;;;;;17.73;15.60;;;;;;;;;;4991709;28;20093;-72
2022/03/15 09:00:52;;;;;;;19.15;16.42;;;;;;;;;;4997974;28;20049;-70
2022/03/15 09:03:19;;;;;;;19.25;16.05;;;;;;;;;;5011754;28;20049;-70
2022/03/15 09:05:47;;;;;;;20.88;16.15;;;;;;;;;;5010728;28;20084;-70
2022/03/15 09:08:16;;;;;;;20.40;15.45;;;;;;;;;;5011855;28;20049;-70
2022/03/15 09:10:44;;;;;;;30.80;16.45;;;;;;;;;;5011102;28;20042;-70
2022/03/15 09:13:12;;;;;;;21.38;16.20;;;;;;;;;;5011430;28;20050;-70
2022/03/15 09:15:40;;;;;;;24.58;15.77;;;;;;;;;;5009499;28;20049;-71
2022/03/15 09:18:08;;;;;;;18.02;14.82;;;;;;;;;;5011608;28;20046;-72
2022/03/15 09:20:35;;;;;;;17.83;15.15;;;;;;;;;;5010939;28;20048;-70
2022/03/15 09:23:03;;;;;;;21.83;16.08;;;;;;;;;;5012284;28;20129;-71
2022/03/15 09:25:32;;;;;;;18.35;14.63;;;;;;;;;;5010756;28;20537;-71
2022/03/15 09:28:00;;;;;;;16.85;15.05;;;;;;;;;;5010781;28;20580;-71
2022/03/15 09:30:30;;;;;;;18.33;14.93;;;;;;;;;;5010767;28;20061;-71
2022/03/15 09:32:58;;;;;;;21.77;15.23;;;;;;;;;;5010760;28;20045;-71
2022/03/15 09:35:26;;;;;;;18.50;15.18;;;;;;;;;;5009871;28;20453;-71
2022/03/15 09:37:54;;;;;;;19.20;15.15;;;;;;;;;;4995800;28;20102;-70
2022/03/15 09:40:23;;;;;;;24.63;15.68;;;;;;;;;;5010712;28;20509;-71
2022/03/15 09:42:54;;;;;;;16.50;14.13;;;;;;;;;;5010103;28;20397;-71
2022/03/15 09:45:23;;;;;;;17.20;14.15;;;;;;;;;;5009692;28;20144;-71
2022/03/15 09:47:51;;;;;;;16.77;14.25;;;;;;;;;;5010815;28;20498;-70
2022/03/15 09:50:21;;;;;;;20.23;15.57;;;;;;;;;;5010602;28;20050;-71
2022/03/15 09:52:49;;;;;;;18.67;15.80;;;;;;;;;;5033161;22;20144;-71
2022/03/15 09:55:17;;;;;;;19.70;15.20;;;;;;;;;;5034554;28;20037;-72
2022/03/15 09:57:44;;;;;;;19.95;15.18;;;;;;;;;;5043295;28;20041;-72
2022/03/15 10:00:12;;;;;;;17.23;15.27;;;;;;;;;;5044826;28;20035;-71
2022/03/15 10:02:40;;;;;;;19.05;14.95;;;;;;;;;;5041681;28;20412;-72
2022/03/15 10:05:08;;;;;;;15.85;14.05;;;;;;;;;;5033942;28;20048;-72
2022/03/15 10:07:36;;;;;;;15.55;13.93;;;;;;;;;;5032777;28;20048;-72
2022/03/15 10:10:11;;;;;;;16.20;14.15;;;;;;;;;;5042239;28;20615;-72
2022/03/15 10:12:38;;;;;;;22.63;15.05;;;;;;;;;;5043598;28;20048;-72
2022/03/15 10:15:12;;;;;;;16.10;13.85;;;;;;;;;;5041119;28;20080;-72
2022/03/15 10:17:43;;;;;;;15.70;14.10;;;;;;;;;;5041979;28;20095;-72
2022/03/15 10:20:13;;;;;;;17.80;14.13;;;;;;;;;;5045137;28;20037;-71
2022/03/15 10:22:49;;;;;;;16.50;14.60;;;;;;;;;;5044146;28;20101;-72
2022/03/15 10:25:20;;;;;;;19.02;14.57;;;;;;;;;;5045085;28;20110;-71
2022/03/15 10:27:56;;;;;;;17.17;13.43;;;;;;;;;;5039648;28;20560;-71
2022/03/15 10:30:24;;;;;;;15.18;13.25;;;;;;;;;;5044579;28;20073;-72
2022/03/15 10:32:51;;;;;;;18.33;13.35;;;;;;;;;;5044688;28;20043;-73
2022/03/15 10:35:20;;;;;;;25.17;13.35;;;;;;;;;;5047497;28;20518;-72
2022/03/15 10:37:48;;;;;;;19.80;12.55;;;;;;;;;;5038026;28;20492;-72
2022/03/15 10:40:15;;;;;;;15.77;11.52;;;;;;;;;;5044124;28;20061;-73
2022/03/15 10:42:44;;;;;;;12.93;10.18;;;;;;;;;;5042718;28;20531;-74
2022/03/15 10:45:18;;;;;;;24.60;11.60;;;;;;;;;;5043476;28;20537;-72
2022/03/15 10:47:48;;;;;;;13.38;11.45;;;;;;;;;;5043140;28;20127;-73
2022/03/15 10:50:18;;;;;;;13.85;11.50;;;;;;;;;;5043833;28;20041;-72
2022/03/15 10:52:46;;;;;;;17.48;10.93;;;;;;;;;;5033033;28;20041;-72
2022/03/15 10:55:15;;;;;;;12.80;10.77;;;;;;;;;;5029049;28;20505;-73
2022/03/15 10:57:47;;;;;;;14.15;11.30;;;;;;;;;;5040610;28;20037;-72
2022/03/15 11:00:16;;;;;;;21.77;11.40;;;;;;;;;;5043249;28;20041;-72
2022/03/15 11:02:44;;;;;;;13.45;11.98;;;;;;;;;;5043002;28;20392;-72
2022/03/15 11:05:11;;;;;;;22.80;11.80;;;;;;;;;;5041639;28;20120;-72
2022/03/15 11:07:42;;;;;;;28.10;13.20;;;;;;;;;;5040649;28;20501;-72
2022/03/15 11:10:11;;;;;;;15.13;11.85;;;;;;;;;;5040725;28;20079;-72
2022/03/15 11:12:38;;;;;;;16.88;11.98;;;;;;;;;;5047858;28;20095;-73
2022/03/15 11:15:06;;;;;;;17.65;11.85;;;;;;;;;;5034423;28;20053;-73
2022/03/15 11:17:35;;;;;;;14.13;11.63;;;;;;;;;;5033667;28;20049;-72
2022/03/15 11:20:05;;;;;;;17.63;12.18;;;;;;;;;;5035004;28;20049;-73
2022/03/15 11:22:34;;;;;;;15.57;12.57;;;;;;;;;;5035297;28;20116;-72
2022/03/15 11:25:02;;;;;;;14.35;12.40;;;;;;;;;;5034950;28;20045;-72
2022/03/15 11:27:31;;;;;;;14.63;11.63;;;;;;;;;;5046952;28;20033;-72
2022/03/15 11:30:02;;;;;;;17.17;12.07;;;;;;;;;;5037839;28;20037;-74
2022/03/15 11:32:31;;;;;;;17.20;12.27;;;;;;;;;;5047165;28;20090;-73
2022/03/15 11:34:59;;;;;;;14.50;11.60;;;;;;;;;;5035426;28;20658;-72
2022/03/15 11:37:26;;;;;;;12.43;11.20;;;;;;;;;;5064015;28;20044;-72
2022/03/15 11:39:54;;;;;;;14.20;11.55;;;;;;;;;;5043617;28;20107;-72
2022/03/15 11:42:21;;;;;;;11.88;10.65;;;;;;;;;;5044932;28;20072;-73
2022/03/15 11:45:02;;;;;;;9.60;8.68;;;;;;;;;;5029186;28;20033;-72
2022/03/15 11:47:45;;;;;;;14.98;10.38;;;;;;;;;;5041314;28;20348;-72
2022/03/15 11:50:13;;;;;;;10.98;9.82;;;;;;;;;;5029155;28;20041;-72
2022/03/15 11:53:13;;;;;;;17.85;10.50;;;;;;;;;;5031457;28;20042;-73
2022/03/15 11:55:41;;;;;;;13.77;10.00;;;;;;;;;;5007489;28;20045;-73
2022/03/15 11:58:10;;;;;;;11.18;9.38;;;;;;;;;;5039636;28;20155;-72
2022/03/15 12:00:42;;;;;;;13.02;9.15;;;;;;;;;;5039328;28;20136;-74
2022/03/15 12:03:15;;;;;;;11.10;9.70;;;;;;;;;;5026096;28;20060;-73
2022/03/15 12:05:48;;;;;;;9.68;8.60;;;;;;;;;;5057689;28;20043;-72
2022/03/15 12:08:18;;;;;;;10.07;8.95;;;;;;;;;;5043714;28;20063;-72
2022/03/15 12:10:58;;;;;;;12.73;8.52;;;;;;;;;;5042640;28;20106;-73
2022/03/15 12:13:40;;;;;;;23.77;9.18;;;;;;;;;;5029872;28;20079;-73
2022/03/15 12:16:15;;;;;;;9.73;8.73;;;;;;;;;;5027511;28;20051;-74
2022/03/15 12:18:45;;;;;;;9.98;8.88;;;;;;;;;;5028426;28;20073;-73
2022/03/15 12:21:13;;;;;;;9.43;8.10;;;;;;;;;;5041814;28;20508;-73
2022/03/15 12:23:42;;;;;;;10.93;8.18;;;;;;;;;;5029999;28;20607;-72
2022/03/15 12:26:23;;;;;;;13.70;7.93;;;;;;;;;;5034091;28;20076;-72
2022/03/15 12:29:02;;;;;;;9.55;8.50;;;;;;;;;;5041691;28;20049;-72
2022/03/15 12:31:33;;;;;;;10.57;8.55;;;;;;;;;;5041459;28;20043;-73
2022/03/15 12:34:01;;;;;;;11.95;9.00;;;;;;;;;;5026756;28;20127;-72
2022/03/15 12:36:49;;;;;;;8.95;8.05;;;;;;;;;;5037435;28;20048;-72
2022/03/15 12:39:20;;;;;;;11.23;9.30;;;;;;;;;;5041229;28;20041;-72
2022/03/15 12:41:49;;;;;;;9.65;8.23;;;;;;;;;;5042964;28;20048;-72
2022/03/15 12:44:22;;;;;;;8.35;7.55;;;;;;;;;;5035557;28;20041;-71
2022/03/15 12:46:50;;;;;;;9.45;8.00;;;;;;;;;;5037929;28;20045;-72
2022/03/15 12:49:18;;;;;;;9.60;8.60;;;;;;;;;;5040698;28;20444;-72
2022/03/15 12:51:46;;;;;;;9.38;8.43;;;;;;;;;;5042437;28;20044;-72
2022/03/15 12:54:14;;;;;;;9.15;8.25;;;;;;;;;;5036276;28;20037;-72
2022/03/15 12:56:49;;;;;;;9.60;8.20;;;;;;;;;;5033400;28;20599;-73
2022/03/15 12:59:23;;;;;;;11.25;7.85;;;;;;;;;;5025215;28;20140;-72
2022/03/15 13:01:51;;;;;;;9.77;8.10;;;;;;;;;;5039834;28;20048;-73
2022/03/15 13:04:27;;;;;;;11.38;8.73;;;;;;;;;;5042687;28;20136;-72
2022/03/15 13:06:57;;;;;;;9.02;8.13;;;;;;;;;;5040622;28;20120;-72
2022/03/15 13:09:25;;;;;;;12.38;8.82;;;;;;;;;;5038288;28;20151;-72
2022/03/15 13:11:56;;;;;;;10.82;8.07;;;;;;;;;;5041816;28;20763;-72
2022/03/15 13:14:26;;;;;;;15.10;12.33;;;;;;;;;;5041750;28;20524;-72
2022/03/15 13:16:57;;;;;;;13.50;8.60;;;;;;;;;;5042909;28;20750;-72
2022/03/15 13:19:26;;;;;;;14.38;9.35;;;;;;;;;;5041212;28;20049;-73
2022/03/15 13:21:54;;;;;;;10.90;8.65;;;;;;;;;;5043586;28;20564;-72
2022/03/15 13:24:24;;;;;;;12.18;8.73;;;;;;;;;;5047082;28;20049;-72
2022/03/15 13:26:56;;;;;;;10.18;8.55;;;;;;;;;;5044645;28;20045;-72
2022/03/15 13:29:27;;;;;;;11.18;8.60;;;;;;;;;;5046541;28;20045;-72
2022/03/15 13:31:55;;;;;;;11.55;8.85;;;;;;;;;;5045848;28;20040;-72
2022/03/15 13:34:30;;;;;;;9.55;8.55;;;;;;;;;;5044931;28;20157;-72
2022/03/15 13:37:06;;;;;;;10.90;8.73;;;;;;;;;;5045689;28;20114;-72
2022/03/15 13:39:37;;;;;;;10.07;9.00;;;;;;;;;;5046070;28;20119;-73
2022/03/15 13:42:10;;;;;;;14.02;8.70;;;;;;;;;;5038614;28;20040;-72
2022/03/15 13:44:38;;;;;;;10.57;9.50;;;;;;;;;;5045495;28;20126;-72
2022/03/15 13:47:08;;;;;;;11.55;9.68;;;;;;;;;;5046373;28;20162;-72
2022/03/15 13:49:39;;;;;;;9.98;8.70;;;;;;;;;;5047254;28;20065;-72
2022/03/15 13:52:14;;;;;;;18.15;16.23;;;;;;;;;;5044822;28;20051;-72
2022/03/15 13:55:10;;;;;;;13.68;12.15;;;;;;;;;;5045936;28;20504;-73
2022/03/15 13:57:40;;;;;;;13.88;10.75;;;;;;;;;;5025457;28;20174;-72
2022/03/15 14:00:14;;;;;;;13.32;11.00;;;;;;;;;;5028970;28;20037;-72
2022/03/15 14:02:41;;;;;;;15.20;10.30;;;;;;;;;;5035085;28;20041;-73
2022/03/15 14:05:11;;;;;;;12.05;9.80;;;;;;;;;;5037701;28;20136;-73
2022/03/15 14:07:40;;;;;;;13.02;8.90;;;;;;;;;;5034711;28;20069;-72
2022/03/15 14:10:17;;;;;;;9.63;8.48;;;;;;;;;;5041306;28;20128;-73
2022/03/15 14:12:55;;;;;;;16.02;10.15;;;;;;;;;;5042387;28;20516;-72
2022/03/15 14:15:28;;;;;;;12.20;9.65;;;;;;;;;;5043022;28;20051;-72
2022/03/15 14:17:58;;;;;;;11.23;9.23;;;;;;;;;;5043872;28;20049;-73
2022/03/15 14:20:41;;;;;;;12.93;8.52;;;;;;;;;;5046940;28;20053;-72
2022/03/15 14:23:10;;;;;;;12.68;9.18;;;;;;;;;;5046531;28;20143;-72
2022/03/15 14:25:41;;;;;;;13.80;9.27;;;;;;;;;;5045391;28;20064;-72
2022/03/15 14:28:10;;;;;;;16.48;10.23;;;;;;;;;;5046241;28;20440;-72
2022/03/15 14:30:43;;;;;;;10.48;8.38;;;;;;;;;;5046906;28;20045;-72
2022/03/15 14:33:19;;;;;;;11.52;8.50;;;;;;;;;;5046712;28;20041;-76
2022/03/15 14:35:49;;;;;;;16.45;9.45;;;;;;;;;;5044321;28;20570;-72